Terminal Aerodrome Forecast
Issued by NWS

Home | Current Version | Previous Version | Graphics & Text | Print | Product List | Glossary On
Versions: 1 2 3 4 5 6 7 8 9 10 11 12 13 14 15 16
000
FTUS43 KMPX 221738
TAFAXN
TAF
KAXN 221738Z 2218/2318 20008KT 3/4SM BR OVC003
      TEMPO 2218/2220 2SM BR SCT003 BKN009
     FM222000 20007KT 4SM BR SCT009 SCT100
     FM222100 22008KT P6SM SCT010
     FM230400 21013KT P6SM OVC090
     FM230800 23013KT P6SM VCSH SCT020 OVC050=

USA.gov is the U.S. government's official web portal to all federal, state and local government web resources and services.